Main page
METAR-TAF:

METAR-TAF

Airports :

Treviso Airport

Treviso, Italy

latitude: 45-39N, longitude: 012-11E, elevation: 18 m

Current weather observation

The report was made 34 minutes ago, at 10:50 UTC
Wind 12 kt from the Northeast, varying between North and East/Northeast
Temperature 6°C
Humidity 49%
Pressure 1009 hPa
Visibility 10 km or more
no clouds below 1500 m and no cumulonimbus

METAR: LIPH 221050Z 05012KT 010V070 CAVOK 06/M04 Q1009

Time: 12:24 (11:24 UTC)

Forecast

The report was made 6 hours and 24 minutes ago, at 05:00 UTC
Forecast valid from 22 at 06 UTC to 23 at 06 UTC
Wind 7 kt from the North/Northeast
Visibility 10 km or more
Scattered clouds at a height of 4000 ft

TAF: LIPH 220500Z 2206/2306 03007KT 9999 SCT040

Weather observations and forecasts of more than 4000 airports (METAR and TAF reports).

The available stations are represented by yellow and red dots on the map.

Hover mouse over dot to see the name of the station.

Then click to see weather observations and forecasts.

To change the map : click on the green buttons with a black cross to zoom in, on the green button with a dash to zoom out, or on the green arrows for adjacent maps.


METAR-TAF: